createdAt,value
2019-05-02T00:03:45.628Z,98017.11
2019-05-02T00:05:56.579Z,98016.12
2019-05-02T00:08:07.632Z,98017.48
2019-05-02T00:10:20.036Z,98009.38
2019-05-02T00:12:32.731Z,98008.70
2019-05-02T00:14:44.001Z,98008.97
2019-05-02T00:16:54.877Z,98007.44
2019-05-02T00:19:09.261Z,98000.60
2019-05-02T00:21:18.902Z,98003.86
2019-05-02T00:23:29.863Z,97999.25
2019-05-02T00:25:40.705Z,97998.74
2019-05-02T00:27:51.555Z,97997.97
2019-05-02T00:30:05.206Z,97994.42
2019-05-02T00:32:22.141Z,97997.89
2019-05-02T00:34:30.984Z,97994.01
2019-05-02T00:36:41.955Z,97993.80
2019-05-02T00:38:52.788Z,97989.34
2019-05-02T00:41:03.845Z,97983.88
2019-05-02T00:43:14.691Z,97987.45
2019-05-02T00:45:26.045Z,97985.23
2019-05-02T00:47:42.167Z,97977.41
2019-05-02T00:49:51.838Z,97976.37
2019-05-02T00:52:03.814Z,97981.14
2019-05-02T00:54:19.144Z,97982.30
2019-05-02T00:56:27.528Z,97974.69
2019-05-02T00:58:38.405Z,97974.96
2019-05-02T01:00:53.137Z,97969.05
2019-05-02T01:03:03.989Z,97969.58
2019-05-02T01:05:14.827Z,97969.78
2019-05-02T01:07:26.867Z,97963.42
2019-05-02T01:09:42.338Z,97959.76
2019-05-02T01:11:50.702Z,97962.48
2019-05-02T01:14:01.582Z,97958.05
2019-05-02T01:16:15.162Z,97958.05
2019-05-02T01:18:25.599Z,97960.27
2019-05-02T01:20:36.460Z,97953.44
2019-05-02T01:22:52.148Z,97959.08
2019-05-02T01:25:00.067Z,97959.53
2019-05-02T01:27:12.932Z,97958.61
2019-05-02T01:29:29.874Z,97954.89
2019-05-02T01:31:43.082Z,97956.55
2019-05-02T01:34:04.865Z,97962.19
2019-05-02T01:36:23.527Z,97957.57
2019-05-02T01:38:39.269Z,97948.68
2019-05-02T01:40:53.105Z,97954.84
2019-05-02T01:43:20.125Z,97952.88
2019-05-02T01:45:32.668Z,97952.30
2019-05-02T01:47:43.518Z,97952.76
2019-05-02T01:49:57.237Z,97948.36
2019-05-02T01:52:07.259Z,97949.59
2019-05-02T01:54:18.153Z,97947.56
2019-05-02T01:56:33.018Z,97946.33
2019-05-02T01:58:41.746Z,97941.99
2019-05-02T02:00:54.576Z,97945.41
2019-05-02T02:03:09.185Z,97950.81
2019-05-02T02:05:18.442Z,97949.16
2019-05-02T02:07:29.286Z,97952.66
2019-05-02T02:09:43.968Z,97952.81
2019-05-02T02:11:52.898Z,97954.25
2019-05-02T02:14:07.266Z,97951.30
2019-05-02T02:16:16.668Z,97960.03
2019-05-02T02:18:29.470Z,97957.14
2019-05-02T02:20:54.410Z,97953.42
2019-05-02T02:23:16.430Z,97951.76
2019-05-02T02:25:32.322Z,97952.20
2019-05-02T02:27:44.692Z,97953.27
2019-05-02T02:29:55.534Z,97943.11
2019-05-02T02:32:06.402Z,97945.31
2019-05-02T02:34:21.412Z,97946.89
2019-05-02T02:36:34.132Z,97941.52
2019-05-02T02:38:44.662Z,97938.60
2019-05-02T02:40:55.556Z,97943.16
2019-05-02T02:43:29.982Z,97938.61
2019-05-02T02:45:30.834Z,97936.55
2019-05-02T02:47:41.681Z,97936.17
2019-05-02T02:49:55.844Z,97935.81
2019-05-02T02:52:06.903Z,97941.41
2019-05-02T02:54:18.053Z,97935.63
2019-05-02T02:56:34.382Z,97936.24
2019-05-02T02:58:47.453Z,97936.83
2019-05-02T03:00:54.724Z,97945.19
2019-05-02T03:03:05.577Z,97939.88
2019-05-02T03:05:18.754Z,97945.47
2019-05-02T03:07:29.319Z,97947.28
2019-05-02T03:09:40.262Z,97951.27
2019-05-02T03:12:09.894Z,97946.27
2019-05-02T03:14:22.742Z,97946.23
2019-05-02T03:16:46.030Z,97945.95
2019-05-02T03:18:48.470Z,97944.93
2019-05-02T03:21:01.349Z,97943.11
2019-05-02T03:23:15.163Z,97945.47
2019-05-02T03:25:49.169Z,97935.29
2019-05-02T03:27:40.419Z,97940.08
2019-05-02T03:29:50.894Z,97932.01
2019-05-02T03:32:13.446Z,97938.09
2019-05-02T03:34:15.309Z,97932.41
2019-05-02T03:36:30.643Z,97940.08
2019-05-02T03:38:39.904Z,97940.97
2019-05-02T03:40:50.878Z,97935.51
2019-05-02T03:43:01.844Z,97936.41
2019-05-02T03:45:12.797Z,97933.53
2019-05-02T03:47:24.243Z,97943.55
2019-05-02T03:49:41.099Z,97930.70
2019-05-02T03:51:47.816Z,97936.11
2019-05-02T03:54:07.189Z,97937.95
2019-05-02T03:56:14.050Z,97937.04
2019-05-02T03:58:24.567Z,97938.69
2019-05-02T04:00:35.403Z,97938.85
2019-05-02T04:02:59.602Z,97942.72
2019-05-02T04:05:02.549Z,97939.99
2019-05-02T04:07:12.793Z,97940.52
2019-05-02T04:09:32.142Z,97945.69
2019-05-02T04:11:40.978Z,97947.81
2019-05-02T04:13:52.979Z,97944.91
2019-05-02T04:16:14.673Z,97943.16
2019-05-02T04:18:17.970Z,97940.67
2019-05-02T04:20:29.205Z,97945.84
2019-05-02T04:22:42.678Z,97943.77
2019-05-02T04:24:55.140Z,97945.06
2019-05-02T04:27:06.598Z,97943.11
2019-05-02T04:29:17.587Z,97944.86
2019-05-02T04:31:31.618Z,97944.45
2019-05-02T04:33:41.262Z,97948.50
2019-05-02T04:35:52.132Z,97948.66
2019-05-02T04:38:12.002Z,97943.72
2019-05-02T04:40:18.257Z,97949.32
2019-05-02T04:42:29.419Z,97951.05
2019-05-02T04:44:59.766Z,97947.09
2019-05-02T04:47:02.689Z,97952.39
2019-05-02T04:49:09.018Z,97954.36
2019-05-02T04:51:20.469Z,97959.64
2019-05-02T04:53:36.603Z,97956.39
2019-05-02T04:55:52.464Z,97953.84
2019-05-02T04:57:58.888Z,97961.56
2019-05-02T05:00:11.782Z,97959.69
2019-05-02T05:02:34.314Z,97963.38
2019-05-02T05:04:41.907Z,97961.05
2019-05-02T05:06:56.055Z,97961.67
2019-05-02T05:09:03.995Z,97962.97
2019-05-02T05:11:21.303Z,97959.28
2019-05-02T05:13:29.115Z,97967.48
2019-05-02T05:15:48.478Z,97964.30
2019-05-02T05:17:52.835Z,97959.92
2019-05-02T05:20:10.391Z,97960.08
2019-05-02T05:22:18.409Z,97960.17
2019-05-02T05:24:38.496Z,97955.40
2019-05-02T05:26:51.906Z,97956.55
2019-05-02T05:29:03.491Z,97955.06
2019-05-02T05:31:16.478Z,97952.36
2019-05-02T05:33:28.349Z,97950.27
2019-05-02T05:35:43.269Z,97957.69
2019-05-02T05:37:53.300Z,97959.84
2019-05-02T05:40:05.012Z,97955.16
2019-05-02T05:42:17.873Z,97956.80
2019-05-02T05:44:32.674Z,97960.75
2019-05-02T05:46:42.690Z,97961.30
2019-05-02T05:48:53.777Z,97956.53
2019-05-02T05:51:07.240Z,97955.70
2019-05-02T05:53:21.373Z,97961.18
2019-05-02T05:55:31.684Z,97958.91
2019-05-02T05:57:42.874Z,97960.10
2019-05-02T05:59:53.956Z,97955.14
2019-05-02T06:02:05.531Z,97951.60
2019-05-02T06:04:19.431Z,97953.50
2019-05-02T06:06:30.445Z,97950.17
2019-05-02T06:08:41.319Z,97949.08
2019-05-02T06:10:52.365Z,97945.42
2019-05-02T06:13:05.185Z,97947.45
2019-05-02T06:15:16.253Z,97946.44
2019-05-02T06:17:28.400Z,97942.92
2019-05-02T06:19:39.974Z,97943.63
2019-05-02T06:21:52.722Z,97937.32
2019-05-02T06:24:03.612Z,97943.55
2019-05-02T06:26:15.540Z,97939.45
2019-05-02T06:28:26.708Z,97944.86
2019-05-02T06:30:37.569Z,97937.52
2019-05-02T06:32:49.988Z,97939.09
2019-05-02T06:35:01.192Z,97939.76
2019-05-02T06:37:13.425Z,97946.11
2019-05-02T06:39:27.182Z,97940.81
2019-05-02T06:41:37.616Z,97939.20
2019-05-02T06:43:48.587Z,97939.59
2019-05-02T06:45:59.548Z,97943.09
2019-05-02T06:48:16.851Z,97939.15
2019-05-02T06:50:24.865Z,97939.77
2019-05-02T06:52:36.047Z,97936.46
2019-05-02T06:54:46.885Z,97935.01
2019-05-02T06:56:57.723Z,97933.36
2019-05-02T06:59:13.180Z,97930.56
2019-05-02T07:01:22.974Z,97928.45
2019-05-02T07:03:33.998Z,97939.61
2019-05-02T07:05:44.983Z,97927.13
2019-05-02T07:07:55.881Z,97922.60
2019-05-02T07:10:07.559Z,97928.05
2019-05-02T07:12:18.536Z,97924.41
2019-05-02T07:14:29.414Z,97925.12
2019-05-02T07:16:54.454Z,97923.39
2019-05-02T07:19:21.609Z,97921.20
2019-05-02T07:21:33.730Z,97916.38
2019-05-02T07:23:48.588Z,97925.53
2019-05-02T07:26:00.154Z,97922.91
2019-05-02T07:28:10.807Z,97922.86
2019-05-02T07:30:22.133Z,97914.03
2019-05-02T07:32:33.078Z,97909.33
2019-05-02T07:34:47.783Z,97914.93
2019-05-02T07:36:56.934Z,97915.75
2019-05-02T07:39:09.599Z,97913.41
2019-05-02T07:41:24.199Z,97912.14
2019-05-02T07:43:33.402Z,97910.33
2019-05-02T07:45:45.442Z,97914.92
2019-05-02T07:47:56.995Z,97917.05
2019-05-02T07:50:10.397Z,97908.19
2019-05-02T07:52:21.048Z,97909.36
2019-05-02T07:54:32.008Z,97903.30
2019-05-02T07:56:42.891Z,97905.25
2019-05-02T07:58:53.832Z,97904.45
2019-05-02T08:01:08.183Z,97908.05
2019-05-02T08:03:17.546Z,97908.23
2019-05-02T08:05:28.404Z,97899.16
2019-05-02T08:07:39.243Z,97896.98
2019-05-02T08:09:50.188Z,97902.25
2019-05-02T08:12:01.306Z,97908.90
2019-05-02T08:14:12.242Z,97906.24
2019-05-02T08:16:27.444Z,97898.31
2019-05-02T08:18:35.890Z,97892.05
2019-05-02T08:20:51.035Z,97897.63
2019-05-02T08:22:59.704Z,97888.22
2019-05-02T08:25:11.673Z,97893.52
2019-05-02T08:27:29.119Z,97894.70
2019-05-02T08:29:37.546Z,97899.80
2019-05-02T08:31:49.967Z,97896.98
2019-05-02T08:34:05.794Z,97899.30
2019-05-02T08:36:13.775Z,97895.13
2019-05-02T08:38:24.625Z,97891.95
2019-05-02T08:40:35.488Z,97890.31
2019-05-02T08:42:46.370Z,97892.91
2019-05-02T08:45:01.040Z,97894.27
2019-05-02T08:47:18.637Z,97889.80
2019-05-02T08:49:23.097Z,97892.59
2019-05-02T08:51:33.932Z,97896.22
2019-05-02T08:53:52.002Z,97896.20
2019-05-02T08:56:00.936Z,97889.30
2019-05-02T08:58:14.564Z,97889.44
2019-05-02T09:00:24.752Z,97882.34
2019-05-02T09:02:41.580Z,97887.38
2019-05-02T09:04:58.266Z,97884.13
2019-05-02T09:07:01.324Z,97886.08
2019-05-02T09:09:12.363Z,97880.95
2019-05-02T09:11:23.411Z,97877.80
2019-05-02T09:13:34.360Z,97875.16
2019-05-02T09:15:51.002Z,97870.16
2019-05-02T09:17:58.089Z,97865.69
2019-05-02T09:20:15.086Z,97872.77
2019-05-02T09:22:22.600Z,97862.56
2019-05-02T09:24:33.540Z,97862.59
2019-05-02T09:26:44.394Z,97858.98
2019-05-02T09:28:56.196Z,97856.61
2019-05-02T09:31:08.139Z,97858.41
2019-05-02T09:33:19.165Z,97855.41
2019-05-02T09:35:30.098Z,97853.31
2019-05-02T09:37:41.953Z,97848.51
2019-05-02T09:39:53.023Z,97850.97
2019-05-02T09:42:06.661Z,97838.72
2019-05-02T09:44:18.666Z,97836.21
2019-05-02T09:46:29.615Z,97835.89
2019-05-02T09:48:42.521Z,97834.22
2019-05-02T09:50:53.356Z,97829.41
2019-05-02T09:53:04.317Z,97827.50
2019-05-02T09:55:15.879Z,97825.11
2019-05-02T09:57:26.720Z,97818.18
2019-05-02T09:59:37.581Z,97817.77
2019-05-02T10:01:48.437Z,97812.13
2019-05-02T10:03:59.437Z,97807.41
2019-05-02T10:06:13.953Z,97815.41
2019-05-02T10:08:23.241Z,97812.42
2019-05-02T10:10:37.174Z,97803.88
2019-05-02T10:12:46.973Z,97808.29
2019-05-02T10:14:57.830Z,97804.26
2019-05-02T10:17:08.851Z,97802.33
2019-05-02T10:19:19.854Z,97794.51
2019-05-02T10:21:31.858Z,97799.44
2019-05-02T10:23:42.983Z,97790.52
2019-05-02T10:25:53.829Z,97795.75
2019-05-02T10:28:05.341Z,97788.66
2019-05-02T10:30:19.075Z,97787.80
2019-05-02T10:32:32.044Z,97782.51
2019-05-02T10:34:47.453Z,97787.30
2019-05-02T10:36:58.857Z,97776.78
2019-05-02T10:39:08.530Z,97772.52
2019-05-02T10:41:19.416Z,97768.83
2019-05-02T10:43:30.346Z,97773.31
2019-05-02T10:45:47.501Z,97766.25
2019-05-02T10:47:57.198Z,97769.81
2019-05-02T10:50:25.332Z,97761.97
2019-05-02T10:52:36.167Z,97766.50
2019-05-02T10:54:47.139Z,97760.23
2019-05-02T10:56:57.992Z,97757.17
2019-05-02T10:59:08.841Z,97752.80
2019-05-02T11:01:21.922Z,97743.83
2019-05-02T11:03:42.629Z,97750.13
2019-05-02T11:05:53.010Z,97743.47
2019-05-02T11:08:06.247Z,97742.38
2019-05-02T11:10:16.759Z,97741.59
2019-05-02T11:12:44.448Z,97742.22
2019-05-02T11:14:51.647Z,97732.69
2019-05-02T11:17:13.788Z,97727.27
2019-05-02T11:19:25.491Z,97719.55
2019-05-02T11:21:36.458Z,97719.24
2019-05-02T11:23:47.462Z,97726.28
2019-05-02T11:25:58.563Z,97724.49
2019-05-02T11:28:09.645Z,97725.89
2019-05-02T11:30:22.414Z,97715.47
2019-05-02T11:32:33.487Z,97710.10
2019-05-02T11:36:55.069Z,97717.08
2019-05-02T11:39:17.104Z,97702.94
2019-05-02T11:41:22.458Z,97703.34
2019-05-02T11:43:37.240Z,97701.68
2019-05-02T11:45:47.330Z,97705.30
2019-05-02T11:48:03.383Z,97704.34
2019-05-02T11:50:11.819Z,97703.98
2019-05-02T11:52:27.429Z,97702.06
2019-05-02T11:54:39.255Z,97704.52
2019-05-02T11:56:49.464Z,97705.11
2019-05-02T11:59:02.893Z,97690.60
2019-05-02T12:01:14.076Z,97708.14
2019-05-02T12:03:38.740Z,97704.61
2019-05-02T12:05:49.582Z,97704.98
2019-05-02T12:08:07.583Z,97701.78
2019-05-02T12:10:13.387Z,97701.51
2019-05-02T12:12:27.206Z,97698.53
2019-05-02T12:14:37.062Z,97690.87
2019-05-02T12:16:47.987Z,97692.30
2019-05-02T12:19:09.448Z,97693.09
2019-05-02T12:21:11.988Z,97688.09
2019-05-02T12:23:22.886Z,97686.11
2019-05-02T12:25:33.713Z,97686.83
2019-05-02T12:27:44.586Z,97681.06
2019-05-02T12:29:58.018Z,97679.75
2019-05-02T12:32:08.236Z,97682.86
2019-05-02T12:34:19.371Z,97680.06
2019-05-02T12:36:30.303Z,97681.57
2019-05-02T12:38:42.035Z,97679.77
2019-05-02T12:40:53.000Z,97671.94
2019-05-02T12:43:03.963Z,97671.56
2019-05-02T12:45:14.914Z,97673.02
2019-05-02T12:47:25.780Z,97677.02
2019-05-02T12:49:36.647Z,97674.43
2019-05-02T12:51:47.478Z,97666.80
2019-05-02T12:53:58.370Z,97664.44
2019-05-02T12:56:09.319Z,97665.28
2019-05-02T12:58:21.871Z,97661.83
2019-05-02T13:00:33.045Z,97661.23
2019-05-02T13:03:02.026Z,97661.24
2019-05-02T13:05:13.257Z,97657.93
2019-05-02T13:07:24.231Z,97659.19
2019-05-02T13:09:35.107Z,97660.58
2019-05-02T13:11:47.880Z,97665.30
2019-05-02T13:13:58.855Z,97653.82
2019-05-02T13:16:12.043Z,97647.03
2019-05-02T13:18:26.821Z,97645.92
2019-05-02T13:20:38.256Z,97644.53
2019-05-02T13:23:07.265Z,97648.14
2019-05-02T13:25:20.067Z,97638.77
2019-05-02T13:27:41.263Z,97643.19
2019-05-02T13:29:43.886Z,97640.16
2019-05-02T13:32:08.744Z,97633.91
2019-05-02T13:34:31.811Z,97629.84
2019-05-02T13:36:46.242Z,97627.83
2019-05-02T13:38:57.215Z,97621.94
2019-05-02T13:41:08.372Z,97612.56
2019-05-02T13:43:21.815Z,97611.27
2019-05-02T13:45:34.787Z,97610.30
2019-05-02T13:47:45.643Z,97610.11
2019-05-02T13:50:00.731Z,97610.75
2019-05-02T13:52:11.704Z,97604.64
2019-05-02T13:54:22.805Z,97595.24
2019-05-02T13:56:47.586Z,97602.38
2019-05-02T13:58:58.446Z,97585.18
2019-05-02T14:01:11.697Z,97582.35
2019-05-02T14:03:22.742Z,97581.72
2019-05-02T14:05:35.631Z,97580.75
2019-05-02T14:07:57.212Z,97572.34
2019-05-02T14:10:24.655Z,97572.13
2019-05-02T14:12:46.420Z,97564.40
2019-05-02T14:14:57.416Z,97566.69
2019-05-02T14:17:08.249Z,97549.43
2019-05-02T14:19:19.094Z,97547.19
2019-05-02T14:21:32.117Z,97552.78
2019-05-02T14:23:42.888Z,97552.66
2019-05-02T14:25:53.875Z,97547.56
2019-05-02T14:28:04.854Z,97545.27
2019-05-02T14:30:16.599Z,97549.58
2019-05-02T14:32:27.609Z,97534.39
2019-05-02T14:34:42.477Z,97547.45
2019-05-02T14:36:58.871Z,97549.94
2019-05-02T14:39:07.877Z,97542.39
2019-05-02T14:41:21.795Z,97540.94
2019-05-02T14:43:53.118Z,97541.06
2019-05-02T14:46:03.585Z,97544.88
2019-05-02T14:48:21.158Z,97536.32
2019-05-02T14:50:28.594Z,97535.03
2019-05-02T14:52:42.190Z,97531.23
2019-05-02T14:54:55.506Z,97529.94
2019-05-02T14:57:11.831Z,97534.30
2019-05-02T14:59:22.887Z,97531.87
2019-05-02T15:01:33.986Z,97532.06
2019-05-02T15:03:44.867Z,97527.52
2019-05-02T15:05:58.997Z,97531.79
2019-05-02T15:08:11.821Z,97525.24
2019-05-02T15:10:22.907Z,97531.66
2019-05-02T15:12:33.771Z,97531.20
2019-05-02T15:14:44.607Z,97522.98
2019-05-02T15:16:58.345Z,97525.80
2019-05-02T15:19:08.473Z,97524.50
2019-05-02T15:21:22.797Z,97515.92
2019-05-02T15:23:33.930Z,97511.80
2019-05-02T15:25:47.194Z,97511.34
2019-05-02T15:27:59.949Z,97507.39
2019-05-02T15:30:10.985Z,97511.53
2019-05-02T15:32:26.462Z,97507.57
2019-05-02T15:34:56.022Z,97505.44
2019-05-02T15:37:06.860Z,97505.23
2019-05-02T15:41:32.607Z,97505.55
2019-05-02T15:43:44.593Z,97508.20
2019-05-02T15:45:56.406Z,97511.84
2019-05-02T15:48:07.367Z,97512.18
2019-05-02T15:50:23.839Z,97515.13
2019-05-02T15:52:32.972Z,97519.27
2019-05-02T15:54:44.107Z,97534.93
2019-05-02T15:57:05.497Z,97598.55
2019-05-02T15:59:07.755Z,97605.28
2019-05-02T16:01:32.012Z,97609.85
2019-05-02T16:03:46.188Z,97606.72
2019-05-02T16:05:57.468Z,97606.72
2019-05-02T16:08:09.081Z,97601.36
2019-05-02T16:10:21.688Z,97601.80
2019-05-02T16:12:36.008Z,97607.47
2019-05-02T16:14:45.634Z,97615.59
2019-05-02T16:16:56.453Z,97624.18
2019-05-02T16:19:07.311Z,97638.89
2019-05-02T16:21:28.413Z,97637.38
2019-05-02T16:23:35.639Z,97637.70
2019-05-02T16:25:45.935Z,97648.59
2019-05-02T16:27:57.438Z,97655.38
2019-05-02T16:30:12.833Z,97661.00
2019-05-02T16:32:24.743Z,97657.09
2019-05-02T16:34:54.734Z,97655.64
2019-05-02T16:37:13.443Z,97649.20
2019-05-02T16:39:23.171Z,97649.45
2019-05-02T16:41:34.037Z,97645.21
2019-05-02T16:43:44.976Z,97644.50
2019-05-02T16:45:55.950Z,97638.95
2019-05-02T16:48:06.822Z,97628.51
2019-05-02T16:50:18.723Z,97624.23
2019-05-02T16:52:29.725Z,97626.14
2019-05-02T16:54:41.601Z,97621.41
2019-05-02T16:56:53.481Z,97620.81
2019-05-02T16:59:04.342Z,97618.30
2019-05-02T17:01:24.566Z,97626.47
2019-05-02T17:03:28.272Z,97620.73
2019-05-02T17:05:43.602Z,97628.75
2019-05-02T17:07:53.971Z,97634.69
2019-05-02T17:10:19.052Z,97640.39
2019-05-02T17:12:31.853Z,97648.47
2019-05-02T17:14:51.582Z,97633.21
2019-05-02T17:16:57.545Z,97636.73
2019-05-02T17:19:08.519Z,97641.23
2019-05-02T17:21:19.396Z,97644.90
2019-05-02T17:23:30.287Z,97640.45
2019-05-02T17:25:41.688Z,97646.73
2019-05-02T17:28:00.215Z,97644.84
2019-05-02T17:30:08.148Z,97647.31
2019-05-02T17:32:19.056Z,97648.47
2019-05-02T17:34:32.570Z,97655.05
2019-05-02T17:36:45.636Z,97661.39
2019-05-02T17:38:59.440Z,97666.06
2019-05-02T17:41:08.673Z,97671.97
2019-05-02T17:43:19.594Z,97672.31
2019-05-02T17:45:33.556Z,97678.83
2019-05-02T17:47:43.538Z,97683.18
2019-05-02T17:49:57.425Z,97684.87
2019-05-02T17:52:19.080Z,97695.58
2019-05-02T17:54:26.296Z,97693.20
2019-05-02T17:56:37.339Z,97684.05
2019-05-02T17:58:54.295Z,97682.30
2019-05-02T18:01:03.043Z,97688.95
2019-05-02T18:03:15.489Z,97685.63
2019-05-02T18:05:31.279Z,97687.17
2019-05-02T18:07:39.401Z,97682.91
2019-05-02T18:09:52.426Z,97680.65
2019-05-02T18:12:07.164Z,97678.42
2019-05-02T18:14:21.313Z,97679.23
2019-05-02T18:16:29.419Z,97683.39
2019-05-02T18:18:43.680Z,97687.55
2019-05-02T18:20:53.194Z,97683.73
2019-05-02T18:23:05.967Z,97672.83
2019-05-02T18:25:23.603Z,97670.56
2019-05-02T18:27:30.074Z,97671.28
2019-05-02T18:29:42.638Z,97675.87
2019-05-02T18:31:53.741Z,97676.70
2019-05-02T18:34:04.643Z,97674.91
2019-05-02T18:36:17.461Z,97676.80
2019-05-02T18:38:28.429Z,97673.37
2019-05-02T18:40:39.275Z,97673.84
2019-05-02T18:42:51.786Z,97671.14
2019-05-02T18:45:09.775Z,97673.12
2019-05-02T18:47:24.506Z,97673.75
2019-05-02T18:49:33.461Z,97679.79
2019-05-02T18:51:48.253Z,97679.20
2019-05-02T18:53:57.852Z,97675.77
2019-05-02T18:56:10.172Z,97681.23
2019-05-02T18:58:22.618Z,97684.18
2019-05-02T19:00:38.388Z,97683.50
2019-05-02T19:02:47.852Z,97680.55
2019-05-02T19:04:58.836Z,97679.58
2019-05-02T19:07:12.973Z,97683.63
2019-05-02T19:09:28.608Z,97686.95
2019-05-02T19:11:35.519Z,97687.33
2019-05-02T19:13:46.366Z,97694.33
2019-05-02T19:15:57.473Z,97693.47
2019-05-02T19:18:10.564Z,97706.51
2019-05-02T19:20:27.721Z,97711.62
2019-05-02T19:22:48.211Z,97716.25
2019-05-02T19:24:52.355Z,97715.88
2019-05-02T19:27:04.034Z,97711.73
2019-05-02T19:29:17.342Z,97708.29
2019-05-02T19:31:32.020Z,97711.75
2019-05-02T19:33:44.184Z,97711.98
2019-05-02T19:35:55.343Z,97711.88
2019-05-02T19:38:06.206Z,97714.73
2019-05-02T19:40:26.878Z,97717.20
2019-05-02T19:42:33.758Z,97723.72
2019-05-02T19:44:44.616Z,97723.34
2019-05-02T19:46:55.537Z,97725.03
2019-05-02T19:49:06.947Z,97727.84
2019-05-02T19:51:20.311Z,97728.94
2019-05-02T19:53:32.727Z,97732.59
2019-05-02T19:55:43.808Z,97732.34
2019-05-02T19:57:56.660Z,97739.34
2019-05-02T20:00:07.641Z,97744.22
2019-05-02T20:02:18.632Z,97743.02
2019-05-02T20:04:29.639Z,97739.83
2019-05-02T20:06:41.829Z,97740.42
2019-05-02T20:08:58.929Z,97745.53
2019-05-02T20:11:05.910Z,97748.01
2019-05-02T20:13:20.423Z,97751.22
2019-05-02T20:15:32.821Z,97753.81
2019-05-02T20:17:43.921Z,97761.16
2019-05-02T20:19:57.855Z,97757.22
2019-05-02T20:22:11.821Z,97766.70
2019-05-02T20:24:24.750Z,97769.88
2019-05-02T20:26:35.602Z,97768.46
2019-05-02T20:28:46.498Z,97766.91
2019-05-02T20:30:57.552Z,97769.04
2019-05-02T20:33:08.556Z,97773.91
2019-05-02T20:35:19.388Z,97770.70
2019-05-02T20:37:32.362Z,97769.98
2019-05-02T20:39:43.161Z,97766.43
2019-05-02T20:41:54.024Z,97764.15
2019-05-02T20:44:05.012Z,97765.20
2019-05-02T20:46:15.943Z,97771.37
2019-05-02T20:48:26.820Z,97769.46
2019-05-02T20:50:37.690Z,97772.27
2019-05-02T20:52:48.753Z,97771.15
2019-05-02T20:55:01.731Z,97766.16
2019-05-02T20:57:12.595Z,97764.86
2019-05-02T20:59:23.567Z,97758.19
2019-05-02T21:01:34.514Z,97755.33
2019-05-02T21:03:45.543Z,97756.62
2019-05-02T21:06:12.164Z,97753.55
2019-05-02T21:08:28.149Z,97762.17
2019-05-02T21:10:43.947Z,97754.94
2019-05-02T21:12:55.101Z,97762.52
2019-05-02T21:15:06.291Z,97767.55
2019-05-02T21:17:17.198Z,97756.80
2019-05-02T21:19:28.155Z,97759.05
2019-05-02T21:21:40.718Z,97759.57
2019-05-02T21:23:52.896Z,97758.01
2019-05-02T21:26:04.057Z,97766.77
2019-05-02T21:28:15.007Z,97767.20
2019-05-02T21:30:26.286Z,97765.55
2019-05-02T21:32:37.330Z,97766.03
2019-05-02T21:34:48.205Z,97761.56
2019-05-02T21:36:59.031Z,97768.77
2019-05-02T21:39:11.896Z,97766.38
2019-05-02T21:41:22.962Z,97761.56
2019-05-02T21:43:33.964Z,97755.41
2019-05-02T21:45:44.841Z,97765.69
2019-05-02T21:47:55.688Z,97766.94
2019-05-02T21:50:09.647Z,97772.14
2019-05-02T21:52:39.057Z,97767.67
2019-05-02T21:55:07.018Z,97774.39
2019-05-02T21:57:19.263Z,97771.44
2019-05-02T21:59:30.100Z,97773.39
2019-05-02T22:01:45.784Z,97773.95
2019-05-02T22:03:56.824Z,97779.46
2019-05-02T22:06:07.805Z,97777.70
2019-05-02T22:08:18.735Z,97784.59
2019-05-02T22:10:29.607Z,97784.47
2019-05-02T22:12:42.233Z,97780.09
2019-05-02T22:14:55.107Z,97783.28
2019-05-02T22:17:06.074Z,97784.72
2019-05-02T22:19:17.013Z,97784.50
2019-05-02T22:21:27.996Z,97788.48
2019-05-02T22:23:38.995Z,97783.94
2019-05-02T22:25:49.948Z,97787.01
2019-05-02T22:28:01.953Z,97788.44
2019-05-02T22:30:13.180Z,97795.09
2019-05-02T22:32:24.166Z,97795.91
2019-05-02T22:34:35.013Z,97796.72
2019-05-02T22:36:45.894Z,97797.89
2019-05-02T22:38:58.646Z,97793.86
2019-05-02T22:41:09.501Z,97793.86
2019-05-02T22:43:22.104Z,97790.44
2019-05-02T22:45:33.042Z,97792.77
2019-05-02T22:47:44.088Z,97796.72
2019-05-02T22:49:54.974Z,97791.78
2019-05-02T22:52:05.980Z,97794.38
2019-05-02T22:54:26.826Z,97796.03
2019-05-02T22:56:31.610Z,97793.57
2019-05-02T22:58:42.485Z,97791.44
2019-05-02T23:00:53.423Z,97786.67
2019-05-02T23:03:04.399Z,97792.34
2019-05-02T23:05:15.346Z,97789.27
2019-05-02T23:07:26.249Z,97787.83
2019-05-02T23:09:37.206Z,97785.37
2019-05-02T23:11:48.155Z,97787.27
2019-05-02T23:13:59.029Z,97783.98
2019-05-02T23:16:09.881Z,97782.69
2019-05-02T23:18:22.697Z,97779.52
2019-05-02T23:20:33.487Z,97783.16
2019-05-02T23:22:44.367Z,97784.81
2019-05-02T23:24:57.109Z,97781.30
2019-05-02T23:27:26.527Z,97778.22
2019-05-02T23:29:37.376Z,97781.03
2019-05-02T23:31:48.245Z,97782.69
2019-05-02T23:33:59.111Z,97778.56
2019-05-02T23:36:09.935Z,97786.10
2019-05-02T23:38:21.777Z,97782.77
2019-05-02T23:40:32.845Z,97775.44
2019-05-02T23:42:43.734Z,97777.78
2019-05-02T23:44:54.705Z,97769.41
2019-05-02T23:47:05.565Z,97777.56
2019-05-02T23:49:16.422Z,97772.58
2019-05-02T23:51:27.285Z,97772.22
2019-05-02T23:53:38.123Z,97778.25
2019-05-02T23:55:49.101Z,97773.65
2019-05-02T23:58:00.033Z,97772.13
